Wetterdaten: Woche 11.12.17 - 17.12.17 (KW50)
Datum Zeit Temperatur Luftfeuchte Luftdruck Niederschlag Windrichtung Sonnenschein Solar Wind
11.12.2017 00:00 2,3 C 98 % 989,9 hPa 0,0 l/m SW 0,00 h 0 W/m 10,2 km/h (2 Bft)
11.12.2017 01:00 1,8 C 98 % 989,7 hPa 0,4 l/m N 0,00 h 0 W/m 0,4 km/h (0 Bft)
11.12.2017 02:00 1,7 C 98 % 989,6 hPa 0,6 l/m N 0,00 h 0 W/m 0,0 km/h (0 Bft)
11.12.2017 03:00 1,9 C 98 % 988,7 hPa 0,8 l/m N 0,00 h 0 W/m 0,3 km/h (0 Bft)
11.12.2017 04:00 2,4 C 98 % 987,7 hPa 0,4 l/m S-SO 0,00 h 0 W/m 4,1 km/h (1 Bft)
11.12.2017 05:00 2,6 C 98 % 986,7 hPa 0,0 l/m SO 0,00 h 0 W/m 0,4 km/h (0 Bft)
11.12.2017 06:00 2,0 C 98 % 985,9 hPa 0,0 l/m N 0,00 h 0 W/m 0,0 km/h (0 Bft)
11.12.2017 07:00 1,8 C 98 % 985,1 hPa 0,0 l/m N 0,00 h 0 W/m 0,0 km/h (0 Bft)
11.12.2017 08:00 2,1 C 98 % 984,4 hPa 0,0 l/m N 0,00 h 9 W/m 0,3 km/h (0 Bft)
11.12.2017 09:00 2,6 C 99 % 983,8 hPa 0,2 l/m N 0,00 h 35 W/m 0,0 km/h (0 Bft)
11.12.2017 10:00 3,1 C 99 % 983,3 hPa 0,0 l/m O-SO 0,00 h 58 W/m 0,4 km/h (0 Bft)
11.12.2017 11:00 3,3 C 99 % 982,7 hPa 0,0 l/m O-NO 0,00 h 56 W/m 2,0 km/h (1 Bft)
11.12.2017 12:00 3,4 C 99 % 981,7 hPa 0,0 l/m N 0,00 h 81 W/m 0,3 km/h (0 Bft)
11.12.2017 13:00 3,6 C 98 % 980,8 hPa 0,0 l/m O-NO 0,00 h 79 W/m 1,1 km/h (0 Bft)
11.12.2017 14:00 3,6 C 97 % 980,9 hPa 0,0 l/m N-NW 0,00 h 91 W/m 7,2 km/h (2 Bft)
11.12.2017 15:00 3,6 C 96 % 982,4 hPa 0,0 l/m N-NW 0,00 h 54 W/m 6,8 km/h (2 Bft)
11.12.2017 16:00 3,0 C 95 % 984,4 hPa 0,0 l/m N 0,33 h 13 W/m 0,8 km/h (0 Bft)
11.12.2017 17:00 2,3 C 95 % 986,3 hPa 0,0 l/m N 0,00 h 0 W/m 0,0 km/h (0 Bft)
11.12.2017 18:00 2,3 C 96 % 987,2 hPa 0,0 l/m SW 0,00 h 0 W/m 5,6 km/h (1 Bft)
11.12.2017 19:00 2,9 C 97 % 988,2 hPa 0,6 l/m SW 0,00 h 0 W/m 10,3 km/h (2 Bft)
11.12.2017 20:00 3,0 C 97 % 989,0 hPa 1,6 l/m SW 0,00 h 0 W/m 12,9 km/h (3 Bft)
11.12.2017 21:00 2,6 C 97 % 989,8 hPa 1,6 l/m SW 0,00 h 0 W/m 13,7 km/h (3 Bft)
11.12.2017 22:00 2,3 C 97 % 990,5 hPa 1,4 l/m SW 0,00 h 0 W/m 19,0 km/h (3 Bft)
11.12.2017 23:00 2,3 C 98 % 991,4 hPa 1,2 l/m SW 0,00 h 0 W/m 17,4 km/h (3 Bft)
12.12.2017 00:00 2,4 C 98 % 991,9 hPa 0,2 l/m SW 0,00 h 0 W/m 15,3 km/h (3 Bft)
12.12.2017 01:00 2,6 C 98 % 992,6 hPa 0,0 l/m SW 0,00 h 0 W/m 18,2 km/h (3 Bft)
12.12.2017 02:00 3,0 C 98 % 993,8 hPa 0,0 l/m SW 0,00 h 0 W/m 17,2 km/h (3 Bft)
12.12.2017 03:00 2,8 C 97 % 995,4 hPa 0,0 l/m SW 0,00 h 0 W/m 12,2 km/h (2 Bft)
12.12.2017 04:00 3,3 C 95 % 997,4 hPa 0,2 l/m W-SW 0,00 h 0 W/m 29,2 km/h (5 Bft)
12.12.2017 05:00 2,6 C 88 % 999,7 hPa 0,0 l/m W-SW 0,00 h 0 W/m 25,1 km/h (4 Bft)
12.12.2017 06:00 1,7 C 87 % 1002,1 hPa 0,0 l/m W-SW 0,00 h 0 W/m 15,3 km/h (3 Bft)
12.12.2017 07:00 1,3 C 87 % 1004,2 hPa 0,0 l/m W-SW 0,00 h 0 W/m 16,6 km/h (3 Bft)
12.12.2017 08:00 1,1 C 89 % 1006,2 hPa 0,0 l/m SW 0,33 h 19 W/m 13,6 km/h (3 Bft)
12.12.2017 09:00 1,2 C 89 % 1007,9 hPa 0,0 l/m W-SW 0,08 h 56 W/m 15,6 km/h (3 Bft)
12.12.2017 10:00 1,3 C 88 % 1009,3 hPa 0,0 l/m W-SW 0,00 h 64 W/m 17,0 km/h (3 Bft)
12.12.2017 11:00 1,2 C 89 % 1010,0 hPa 0,0 l/m SW 0,00 h 84 W/m 20,4 km/h (4 Bft)
12.12.2017 12:00 1,3 C 90 % 1010,5 hPa 0,0 l/m W-SW 0,00 h 97 W/m 20,0 km/h (4 Bft)
12.12.2017 13:00 1,3 C 89 % 1011,0 hPa 0,0 l/m W-SW 0,00 h 88 W/m 19,7 km/h (3 Bft)
12.12.2017 14:00 1,3 C 89 % 1011,5 hPa 0,0 l/m W-SW 0,00 h 80 W/m 14,1 km/h (3 Bft)
12.12.2017 15:00 1,3 C 89 % 1012,4 hPa 0,0 l/m W-SW 0,00 h 40 W/m 13,8 km/h (3 Bft)
12.12.2017 16:00 1,2 C 88 % 1013,1 hPa 0,0 l/m W-SW 0,08 h 9 W/m 17,0 km/h (3 Bft)
12.12.2017 17:00 0,7 C 90 % 1014,2 hPa 0,0 l/m SW 0,00 h 0 W/m 6,4 km/h (2 Bft)
12.12.2017 18:00 0,4 C 92 % 1015,1 hPa 0,0 l/m SW 0,00 h 0 W/m 9,7 km/h (2 Bft)
12.12.2017 19:00 0,3 C 93 % 1015,9 hPa 0,0 l/m SW 0,00 h 0 W/m 8,9 km/h (2 Bft)
12.12.2017 20:00 -0,1 C 93 % 1016,4 hPa 0,0 l/m W-SW 0,00 h 0 W/m 13,2 km/h (3 Bft)
12.12.2017 21:00 -0,5 C 93 % 1017,1 hPa 0,0 l/m SW 0,00 h 0 W/m 11,5 km/h (2 Bft)
12.12.2017 22:00 -1,1 C 94 % 1017,6 hPa 0,0 l/m SW 0,00 h 0 W/m 8,8 km/h (2 Bft)
12.12.2017 23:00 -1,2 C 94 % 1018,1 hPa 0,0 l/m SW 0,00 h 0 W/m 2,7 km/h (1 Bft)
13.12.2017 00:00 -2,1 C 94 % 1018,2 hPa 0,0 l/m N 0,00 h 0 W/m 0,0 km/h (0 Bft)
13.12.2017 01:00 -3,0 C 94 % 1018,1 hPa 0,0 l/m N 0,00 h 0 W/m 0,3 km/h (0 Bft)
13.12.2017 02:00 -2,9 C 95 % 1018,4 hPa 0,0 l/m SW 0,00 h 0 W/m 4,0 km/h (1 Bft)
13.12.2017 03:00 -3,0 C 95 % 1018,6 hPa 0,0 l/m N 0,00 h 0 W/m 0,0 km/h (0 Bft)
13.12.2017 04:00 -3,7 C 95 % 1018,6 hPa 0,0 l/m SW 0,00 h 0 W/m 1,5 km/h (1 Bft)
13.12.2017 05:00 -2,4 C 96 % 1018,4 hPa 0,0 l/m W-SW 0,00 h 0 W/m 13,4 km/h (3 Bft)
13.12.2017 06:00 -2,0 C 95 % 1018,0 hPa 0,0 l/m SW 0,00 h 0 W/m 7,1 km/h (2 Bft)
13.12.2017 07:00 -3,4 C 93 % 1017,9 hPa 0,0 l/m SW 0,00 h 0 W/m 3,9 km/h (1 Bft)
13.12.2017 08:00 -3,7 C 94 % 1017,7 hPa 0,0 l/m N 0,17 h 23 W/m 1,6 km/h (1 Bft)
13.12.2017 09:00 -3,1 C 95 % 1017,2 hPa 0,0 l/m SW 1,00 h 139 W/m 1,5 km/h (1 Bft)
13.12.2017 10:00 -1,7 C 96 % 1016,8 hPa 0,0 l/m SW 1,00 h 236 W/m 2,7 km/h (1 Bft)
13.12.2017 11:00 0,3 C 94 % 1015,4 hPa 0,0 l/m S-SW 1,00 h 296 W/m 12,5 km/h (3 Bft)
13.12.2017 12:00 1,7 C 86 % 1013,6 hPa 0,0 l/m SW 1,00 h 301 W/m 16,2 km/h (3 Bft)
13.12.2017 13:00 2,4 C 74 % 1011,8 hPa 0,0 l/m SW 0,83 h 185 W/m 14,2 km/h (3 Bft)
13.12.2017 14:00 2,0 C 75 % 1010,5 hPa 0,0 l/m SW 0,08 h 95 W/m 11,0 km/h (2 Bft)
13.12.2017 15:00 1,7 C 75 % 1009,5 hPa 0,0 l/m SW 0,08 h 54 W/m 18,2 km/h (3 Bft)
13.12.2017 16:00 1,9 C 68 % 1008,7 hPa 0,0 l/m SW 0,08 h 11 W/m 23,5 km/h (4 Bft)
13.12.2017 17:00 1,8 C 75 % 1008,5 hPa 0,0 l/m W-SW 0,00 h 0 W/m 31,9 km/h (5 Bft)
13.12.2017 18:00 0,8 C 91 % 1007,9 hPa 0,2 l/m SW 0,00 h 0 W/m 24,9 km/h (4 Bft)
13.12.2017 19:00 0,6 C 94 % 1007,0 hPa 0,2 l/m W-SW 0,00 h 0 W/m 24,1 km/h (4 Bft)
13.12.2017 20:00 0,5 C 95 % 1005,3 hPa 0,0 l/m SW 0,00 h 0 W/m 20,6 km/h (4 Bft)
13.12.2017 21:00 0,2 C 95 % 1003,7 hPa 0,0 l/m SW 0,00 h 0 W/m 14,5 km/h (3 Bft)
13.12.2017 22:00 0,2 C 95 % 1001,6 hPa 0,0 l/m SW 0,00 h 0 W/m 14,2 km/h (3 Bft)
13.12.2017 23:00 0,8 C 95 % 1000,2 hPa 0,2 l/m SW 0,00 h 0 W/m 18,4 km/h (3 Bft)
14.12.2017 00:00 0,9 C 95 % 999,6 hPa 0,6 l/m W-SW 0,00 h 0 W/m 20,4 km/h (4 Bft)
14.12.2017 01:00 3,0 C 96 % 999,0 hPa 0,0 l/m W-SW 0,00 h 0 W/m 40,5 km/h (6 Bft)
14.12.2017 02:00 4,3 C 93 % 999,1 hPa 0,0 l/m W 0,00 h 0 W/m 40,8 km/h (6 Bft)
14.12.2017 03:00 5,1 C 94 % 999,0 hPa 1,0 l/m W 0,00 h 0 W/m 37,8 km/h (5 Bft)
14.12.2017 04:00 5,1 C 94 % 998,4 hPa 2,2 l/m W-SW 0,00 h 0 W/m 36,3 km/h (5 Bft)
14.12.2017 05:00 5,2 C 94 % 997,9 hPa 0,0 l/m W-SW 0,00 h 0 W/m 33,3 km/h (5 Bft)
14.12.2017 06:00 4,4 C 90 % 1000,1 hPa 0,8 l/m W-NW 0,00 h 0 W/m 48,8 km/h (6 Bft)
14.12.2017 07:00 1,1 C 94 % 1001,7 hPa 0,0 l/m W-NW 0,00 h 0 W/m 32,3 km/h (5 Bft)
14.12.2017 08:00 1,4 C 93 % 1002,9 hPa 0,0 l/m W-SW 0,00 h 14 W/m 18,1 km/h (3 Bft)
14.12.2017 09:00 1,4 C 93 % 1003,8 hPa 0,0 l/m W-SW 0,42 h 103 W/m 15,6 km/h (3 Bft)
14.12.2017 10:00 1,5 C 94 % 1004,4 hPa 0,4 l/m SW 0,50 h 149 W/m 18,5 km/h (3 Bft)
14.12.2017 11:00 1,8 C 95 % 1003,9 hPa 1,2 l/m SW 0,83 h 230 W/m 18,6 km/h (3 Bft)
14.12.2017 12:00 2,3 C 92 % 1003,2 hPa 0,8 l/m W-SW 0,50 h 178 W/m 17,6 km/h (3 Bft)
14.12.2017 13:00 2,5 C 90 % 1002,6 hPa 0,2 l/m SW 0,00 h 105 W/m 19,8 km/h (4 Bft)
14.12.2017 14:00 2,5 C 90 % 1002,0 hPa 0,0 l/m SW 0,00 h 73 W/m 16,1 km/h (3 Bft)
14.12.2017 15:00 2,6 C 91 % 1001,4 hPa 0,0 l/m SW 0,00 h 44 W/m 17,8 km/h (3 Bft)
14.12.2017 16:00 2,7 C 92 % 1000,8 hPa 0,0 l/m SW 0,00 h 8 W/m 23,5 km/h (4 Bft)
14.12.2017 17:00 2,4 C 92 % 999,8 hPa 0,0 l/m W-SW 0,00 h 0 W/m 24,8 km/h (4 Bft)
14.12.2017 18:00 2,0 C 93 % 998,9 hPa 0,0 l/m SW 0,00 h 0 W/m 23,1 km/h (4 Bft)
14.12.2017 19:00 1,7 C 95 % 997,9 hPa 0,2 l/m SW 0,00 h 0 W/m 17,7 km/h (3 Bft)
14.12.2017 20:00 1,7 C 96 % 996,9 hPa 0,4 l/m S-SW 0,00 h 0 W/m 21,0 km/h (4 Bft)
14.12.2017 21:00 1,1 C 96 % 996,6 hPa 0,4 l/m SW 0,00 h 0 W/m 18,4 km/h (3 Bft)
14.12.2017 22:00 0,9 C 97 % 995,8 hPa 0,4 l/m SW 0,00 h 0 W/m 26,2 km/h (4 Bft)
14.12.2017 23:00 0,8 C 97 % 995,6 hPa 0,4 l/m SW 0,00 h 0 W/m 16,2 km/h (3 Bft)
15.12.2017 00:00 0,7 C 98 % 995,0 hPa 0,4 l/m SW 0,00 h 0 W/m 21,7 km/h (4 Bft)
15.12.2017 01:00 0,6 C 98 % 994,6 hPa 0,4 l/m SW 0,00 h 0 W/m 16,4 km/h (3 Bft)
15.12.2017 02:00 0,6 C 98 % 994,7 hPa 1,8 l/m S-SW 0,00 h 0 W/m 18,5 km/h (3 Bft)
15.12.2017 03:00 0,9 C 98 % 996,0 hPa 0,2 l/m W-SW 0,00 h 0 W/m 27,6 km/h (4 Bft)
15.12.2017 04:00 1,2 C 98 % 997,1 hPa 0,0 l/m W-SW 0,00 h 0 W/m 24,8 km/h (4 Bft)
15.12.2017 05:00 1,3 C 97 % 997,5 hPa 0,0 l/m SW 0,00 h 0 W/m 27,9 km/h (4 Bft)
15.12.2017 06:00 1,2 C 96 % 998,2 hPa 0,0 l/m W-SW 0,00 h 0 W/m 19,7 km/h (3 Bft)
15.12.2017 07:00 1,1 C 96 % 998,6 hPa 0,0 l/m W-SW 0,00 h 0 W/m 12,1 km/h (2 Bft)
15.12.2017 08:00 1,1 C 95 % 998,6 hPa 0,0 l/m W 0,25 h 31 W/m 18,9 km/h (3 Bft)
15.12.2017 09:00 1,3 C 94 % 999,0 hPa 0,0 l/m W-SW 1,00 h 170 W/m 16,8 km/h (3 Bft)
15.12.2017 10:00 2,0 C 91 % 999,2 hPa 0,0 l/m W-SW 0,75 h 229 W/m 20,0 km/h (4 Bft)
15.12.2017 11:00 2,5 C 87 % 999,0 hPa 0,0 l/m W-SW 0,33 h 144 W/m 26,8 km/h (4 Bft)
15.12.2017 12:00 3,7 C 81 % 999,1 hPa 0,0 l/m W-SW 1,00 h 307 W/m 26,9 km/h (4 Bft)
15.12.2017 13:00 3,8 C 81 % 998,9 hPa 0,0 l/m W-SW 0,67 h 223 W/m 25,2 km/h (4 Bft)
15.12.2017 14:00 3,7 C 81 % 999,0 hPa 0,0 l/m W-SW 0,58 h 135 W/m 19,4 km/h (3 Bft)
15.12.2017 15:00 3,3 C 82 % 999,5 hPa 0,0 l/m W-SW 0,50 h 73 W/m 15,3 km/h (3 Bft)
15.12.2017 16:00 2,5 C 82 % 999,6 hPa 0,0 l/m W-SW 0,08 h 9 W/m 14,2 km/h (3 Bft)
15.12.2017 17:00 1,6 C 83 % 999,8 hPa 0,0 l/m W-SW 0,00 h 0 W/m 7,9 km/h (2 Bft)
15.12.2017 18:00 0,7 C 86 % 999,9 hPa 0,0 l/m W-SW 0,00 h 0 W/m 6,2 km/h (2 Bft)
15.12.2017 19:00 0,8 C 89 % 999,9 hPa 0,0 l/m SW 0,00 h 0 W/m 11,4 km/h (2 Bft)
15.12.2017 20:00 0,6 C 90 % 1000,3 hPa 0,0 l/m SW 0,00 h 0 W/m 7,0 km/h (2 Bft)
15.12.2017 21:00 0,2 C 91 % 1000,5 hPa 0,0 l/m SW 0,00 h 0 W/m 4,8 km/h (1 Bft)
15.12.2017 22:00 -0,1 C 92 % 1000,8 hPa 0,0 l/m SW 0,00 h 0 W/m 1,7 km/h (1 Bft)
15.12.2017 23:00 -0,6 C 93 % 1001,2 hPa 0,0 l/m N 0,00 h 0 W/m 0,0 km/h (0 Bft)
16.12.2017 00:00 -1,1 C 93 % 1001,2 hPa 0,0 l/m N 0,00 h 0 W/m 0,0 km/h (0 Bft)
16.12.2017 01:00 -1,6 C 93 % 1001,3 hPa 0,0 l/m N 0,00 h 0 W/m 0,0 km/h (0 Bft)
16.12.2017 02:00 -1,2 C 94 % 1001,8 hPa 0,0 l/m N 0,00 h 0 W/m 0,0 km/h (0 Bft)
16.12.2017 03:00 -1,0 C 95 % 1002,1 hPa 0,0 l/m N 0,00 h 0 W/m 0,0 km/h (0 Bft)
16.12.2017 04:00 -0,5 C 96 % 1002,6 hPa 0,0 l/m W 0,00 h 0 W/m 7,4 km/h (2 Bft)
16.12.2017 05:00 0,2 C 95 % 1003,4 hPa 0,0 l/m W 0,00 h 0 W/m 2,4 km/h (1 Bft)
16.12.2017 06:00 -0,4 C 95 % 1004,2 hPa 0,0 l/m W-SW 0,00 h 0 W/m 2,0 km/h (1 Bft)
16.12.2017 07:00 -0,6 C 95 % 1005,2 hPa 0,0 l/m W-SW 0,00 h 0 W/m 2,5 km/h (1 Bft)
16.12.2017 08:00 -0,3 C 96 % 1006,3 hPa 0,0 l/m W-SW 0,00 h 11 W/m 2,5 km/h (1 Bft)
16.12.2017 09:00 0,5 C 96 % 1007,3 hPa 0,0 l/m W-SW 0,00 h 45 W/m 11,7 km/h (2 Bft)
16.12.2017 10:00 1,1 C 96 % 1008,3 hPa 0,0 l/m W-SW 0,00 h 89 W/m 8,8 km/h (2 Bft)
16.12.2017 11:00 1,3 C 95 % 1009,0 hPa 0,2 l/m W 0,00 h 71 W/m 7,9 km/h (2 Bft)
16.12.2017 12:00 1,1 C 96 % 1009,6 hPa 0,6 l/m W 0,00 h 55 W/m 8,8 km/h (2 Bft)
16.12.2017 13:00 0,9 C 95 % 1010,5 hPa 0,0 l/m N-NW 0,00 h 81 W/m 5,6 km/h (1 Bft)
16.12.2017 14:00 1,1 C 94 % 1011,2 hPa 0,0 l/m N-NW 0,00 h 63 W/m 1,6 km/h (1 Bft)
16.12.2017 15:00 1,2 C 93 % 1012,2 hPa 0,0 l/m NW 0,00 h 19 W/m 6,1 km/h (2 Bft)
16.12.2017 16:00 0,7 C 92 % 1013,2 hPa 0,0 l/m W-NW 0,08 h 9 W/m 1,2 km/h (1 Bft)
16.12.2017 17:00 -0,0 C 92 % 1014,1 hPa 0,0 l/m N 0,00 h 0 W/m 0,5 km/h (0 Bft)
16.12.2017 18:00 -0,1 C 93 % 1015,1 hPa 0,0 l/m W 0,00 h 0 W/m 3,1 km/h (1 Bft)
16.12.2017 19:00 0,3 C 94 % 1016,1 hPa 0,0 l/m W-SW 0,00 h 0 W/m 6,7 km/h (2 Bft)
16.12.2017 20:00 0,3 C 93 % 1016,8 hPa 0,0 l/m W-SW 0,00 h 0 W/m 6,8 km/h (2 Bft)
16.12.2017 21:00 -0,0 C 93 % 1017,0 hPa 0,0 l/m W-SW 0,00 h 0 W/m 8,3 km/h (2 Bft)
16.12.2017 22:00 -0,1 C 93 % 1017,3 hPa 0,0 l/m W 0,00 h 0 W/m 7,1 km/h (2 Bft)
16.12.2017 23:00 -0,2 C 92 % 1017,7 hPa 0,0 l/m W-SW 0,00 h 0 W/m 2,9 km/h (1 Bft)
17.12.2017 00:00 -0,3 C 93 % 1018,0 hPa 0,0 l/m W-SW 0,00 h 0 W/m 3,6 km/h (1 Bft)
17.12.2017 01:00 -0,2 C 94 % 1018,4 hPa 0,0 l/m W 0,00 h 0 W/m 9,1 km/h (2 Bft)
17.12.2017 02:00 -0,2 C 94 % 1018,8 hPa 0,0 l/m W 0,00 h 0 W/m 8,8 km/h (2 Bft)
17.12.2017 03:00 -0,5 C 95 % 1019,3 hPa 0,0 l/m W 0,00 h 0 W/m 2,3 km/h (1 Bft)
17.12.2017 04:00 -0,6 C 95 % 1019,6 hPa 0,0 l/m N 0,00 h 0 W/m 0,3 km/h (0 Bft)
17.12.2017 05:00 -0,4 C 95 % 1020,0 hPa 0,0 l/m W 0,00 h 0 W/m 5,6 km/h (1 Bft)
17.12.2017 06:00 -0,4 C 95 % 1020,6 hPa 0,0 l/m W 0,00 h 0 W/m 6,1 km/h (2 Bft)
17.12.2017 07:00 -0,3 C 95 % 1021,0 hPa 0,0 l/m W 0,00 h 0 W/m 7,8 km/h (2 Bft)
17.12.2017 08:00 -0,3 C 95 % 1021,7 hPa 0,0 l/m W 0,00 h 8 W/m 8,2 km/h (2 Bft)
17.12.2017 09:00 -0,3 C 94 % 1022,4 hPa 0,0 l/m W 0,00 h 21 W/m 11,3 km/h (2 Bft)
17.12.2017 10:00 -0,1 C 92 % 1023,3 hPa 0,0 l/m W 0,00 h 35 W/m 11,8 km/h (2 Bft)
17.12.2017 11:00 0,4 C 88 % 1023,6 hPa 0,0 l/m W-NW 0,00 h 110 W/m 13,8 km/h (3 Bft)
17.12.2017 12:00 0,5 C 86 % 1023,5 hPa 0,4 l/m W 0,08 h 102 W/m 10,2 km/h (2 Bft)
17.12.2017 13:00 0,5 C 85 % 1023,4 hPa 0,4 l/m W 0,00 h 98 W/m 11,3 km/h (2 Bft)
17.12.2017 14:00 0,5 C 82 % 1023,4 hPa 0,0 l/m W-NW 0,00 h 78 W/m 13,8 km/h (3 Bft)
17.12.2017 15:00 0,2 C 82 % 1024,1 hPa 0,0 l/m W-NW 0,00 h 26 W/m 13,0 km/h (3 Bft)
17.12.2017 16:00 -0,2 C 82 % 1024,9 hPa 0,0 l/m W-NW 0,00 h 8 W/m 9,1 km/h (2 Bft)
17.12.2017 17:00 -0,4 C 82 % 1025,6 hPa 0,0 l/m W-NW 0,00 h 0 W/m 12,2 km/h (2 Bft)
17.12.2017 18:00 -0,6 C 83 % 1026,3 hPa 0,0 l/m W-NW 0,00 h 0 W/m 8,8 km/h (2 Bft)
17.12.2017 19:00 -0,6 C 84 % 1026,5 hPa 0,0 l/m W 0,00 h 0 W/m 9,5 km/h (2 Bft)
17.12.2017 20:00 -0,7 C 84 % 1026,6 hPa 0,0 l/m W 0,00 h 0 W/m 6,7 km/h (2 Bft)
17.12.2017 21:00 -0,7 C 83 % 1026,4 hPa 0,0 l/m W 0,00 h 0 W/m 6,4 km/h (2 Bft)
17.12.2017 22:00 -0,7 C 84 % 1026,5 hPa 0,0 l/m W 0,00 h 0 W/m 7,5 km/h (2 Bft)
17.12.2017 23:00 -0,8 C 88 % 1026,4 hPa 0,0 l/m W-SW 0,00 h 0 W/m 12,0 km/h (2 Bft)
Min-Datum _ 13.12.17 13.12.17 11.12.17 - - - - 11.12.17
_ Min-Zeit 04:40 16:05 14:10 - - - - 01:05
Minimum _ -3,9 C 66 % 980,3 hPa - - - - 0,0 km/h (0 Bft)
Max-Datum _ 14.12.17 11.12.17 17.12.17 14.12.17 - 11.12.17 15.12.17 14.12.17
_ Max-Zeit 06:15 04:40 19:45 04:35 - 16:00 13:15 02:05
Maximum _ 5,8 C 99 % 1026,8 hPa 2,2 l/m - 0,08 h 385 W/m 64,4 km/h
W-SW (8 Bft)
Durchschnitt _ 1,0 C 92 % 1005,3 hPa #23,2 l/m SW #13:40 h 87 W/m 12,3 km/h (3 Bft)